createdAt,value
2022-08-18T00:01:00.784Z,100518.56
2022-08-18T00:03:15.847Z,100508.41
2022-08-18T00:05:31.129Z,100518.44
2022-08-18T00:07:34.089Z,100514.84
2022-08-18T00:09:36.969Z,100510.38
2022-08-18T00:11:43.783Z,100509.19
2022-08-18T00:13:46.177Z,100517.66
2022-08-18T00:15:48.749Z,100519.38
2022-08-18T00:17:51.387Z,100518.22
2022-08-18T00:19:53.420Z,100521.44
2022-08-18T00:21:55.390Z,100512.66
2022-08-18T00:23:57.418Z,100513.47
2022-08-18T00:26:00.236Z,100520.34
2022-08-18T00:28:02.381Z,100515.88
2022-08-18T00:30:08.145Z,100514.22
2022-08-18T00:32:18.506Z,100520.28
2022-08-18T00:34:20.577Z,100523.50
2022-08-18T00:36:22.595Z,100515.03
2022-08-18T00:38:25.514Z,100521.25
2022-08-18T00:40:37.874Z,100519.22
2022-08-18T00:42:50.698Z,100522.03
2022-08-18T00:44:52.826Z,100518.84
2022-08-18T00:46:54.829Z,100520.41
2022-08-18T00:48:57.419Z,100512.38
2022-08-18T00:51:00.976Z,100514.03
2022-08-18T00:53:29.578Z,100511.69
2022-08-18T00:55:31.721Z,100513.81
2022-08-18T00:57:33.793Z,100519.34
2022-08-18T00:59:56.155Z,100518.22
2022-08-18T01:02:03.144Z,100516.25
2022-08-18T01:04:28.357Z,100516.72
2022-08-18T01:07:00.619Z,100523.22
2022-08-18T01:09:03.365Z,100511.06
2022-08-18T01:11:05.554Z,100506.75
2022-08-18T01:13:07.630Z,100502.81
2022-08-18T01:15:28.127Z,100500.03
2022-08-18T01:17:50.657Z,100494.41
2022-08-18T01:20:11.355Z,100502.84
2022-08-18T01:22:49.778Z,100492.72
2022-08-18T01:25:10.863Z,100497.53
2022-08-18T01:27:18.846Z,100510.47
2022-08-18T01:29:21.091Z,100506.50
2022-08-18T01:31:38.324Z,100500.38
2022-08-18T01:33:42.735Z,100507.25
2022-08-18T01:35:50.662Z,100509.78
2022-08-18T01:37:54.119Z,100511.50
2022-08-18T01:41:11.213Z,100511.94
2022-08-18T01:42:18.658Z,100513.91
2022-08-18T01:44:20.676Z,100507.09
2022-08-18T01:46:23.290Z,100506.69
2022-08-18T01:48:25.212Z,100516.38
2022-08-18T01:50:27.301Z,100509.22
2022-08-18T01:52:29.756Z,100512.81
2022-08-18T01:54:31.775Z,100511.66
2022-08-18T01:56:33.767Z,100517.28
2022-08-18T01:58:36.188Z,100507.97
2022-08-18T02:00:38.489Z,100508.00
2022-08-18T02:02:42.038Z,100511.63
2022-08-18T02:04:44.209Z,100509.28
2022-08-18T02:06:46.514Z,100514.53
2022-08-18T02:08:53.591Z,100514.53
2022-08-18T02:10:58.423Z,100511.72
2022-08-18T02:13:00.460Z,100516.22
2022-08-18T02:15:02.460Z,100509.38
2022-08-18T02:17:05.818Z,100505.78
2022-08-18T02:19:07.820Z,100507.81
2022-08-18T02:21:19.179Z,100500.59
2022-08-18T02:23:21.630Z,100503.47
2022-08-18T02:25:23.635Z,100491.38
2022-08-18T02:27:27.065Z,100491.81
2022-08-18T02:29:29.261Z,100494.22
2022-08-18T02:31:31.316Z,100487.78
2022-08-18T02:33:34.152Z,100486.22
2022-08-18T02:35:36.472Z,100492.69
2022-08-18T02:37:38.699Z,100488.25
2022-08-18T02:39:44.429Z,100495.88
2022-08-18T02:41:46.535Z,100492.66
2022-08-18T02:43:48.600Z,100481.03
2022-08-18T02:45:50.699Z,100477.38
2022-08-18T02:47:56.041Z,100485.06
2022-08-18T02:49:58.073Z,100485.44
2022-08-18T02:52:00.065Z,100484.69
2022-08-18T02:54:02.202Z,100483.47
2022-08-18T02:56:40.629Z,100482.66
2022-08-18T02:58:43.734Z,100486.38
2022-08-18T03:00:46.474Z,100489.56
2022-08-18T03:02:49.175Z,100496.44
2022-08-18T03:04:51.446Z,100493.19
2022-08-18T03:06:54.931Z,100497.63
2022-08-18T03:08:56.995Z,100497.25
2022-08-18T03:10:59.317Z,100496.03
2022-08-18T03:13:01.766Z,100498.03
2022-08-18T03:15:04.311Z,100496.81
2022-08-18T03:17:08.569Z,100495.63
2022-08-18T03:19:10.550Z,100494.44
2022-08-18T03:21:18.464Z,100495.63
2022-08-18T03:23:20.424Z,100497.66
2022-08-18T03:27:33.884Z,100507.28
2022-08-18T03:29:36.123Z,100504.09
2022-08-18T03:31:39.203Z,100504.09
2022-08-18T03:33:42.413Z,100505.72
2022-08-18T03:35:44.414Z,100525.06
2022-08-18T03:37:46.614Z,100514.59
2022-08-18T03:39:51.821Z,100514.59
2022-08-18T03:41:59.091Z,100509.78
2022-08-18T03:44:03.488Z,100513.81
2022-08-18T03:46:06.689Z,100507.38
2022-08-18T03:48:08.775Z,100516.25
2022-08-18T03:50:14.071Z,100515.06
2022-08-18T03:52:16.431Z,100518.63
2022-08-18T03:54:18.679Z,100519.44
2022-08-18T03:56:23.364Z,100519.44
2022-08-18T03:58:25.680Z,100524.69
2022-08-18T04:00:27.682Z,100523.88
2022-08-18T04:02:29.691Z,100522.28
2022-08-18T04:04:31.712Z,100531.53
2022-08-18T04:06:39.370Z,100525.94
2022-08-18T04:08:41.358Z,100534.41
2022-08-18T04:10:44.623Z,100528.34
2022-08-18T04:12:46.716Z,100528.34
2022-08-18T04:14:49.745Z,100522.72
2022-08-18T04:16:51.837Z,100522.31
2022-08-18T04:18:53.814Z,100524.31
2022-08-18T04:20:59.520Z,100517.88
2022-08-18T04:23:02.288Z,100526.72
2022-08-18T04:25:04.721Z,100522.28
2022-08-18T04:27:06.741Z,100527.16
2022-08-18T04:29:09.240Z,100531.97
2022-08-18T04:31:13.685Z,100527.53
2022-08-18T04:33:15.694Z,100529.53
2022-08-18T04:35:17.923Z,100529.53
2022-08-18T04:37:20.639Z,100529.91
2022-08-18T04:39:23.681Z,100537.56
2022-08-18T04:41:27.306Z,100536.34
2022-08-18T04:43:30.661Z,100539.16
2022-08-18T04:45:32.789Z,100539.16
2022-08-18T04:47:36.292Z,100546.38
2022-08-18T04:49:38.351Z,100547.56
2022-08-18T04:52:36.634Z,100551.59
2022-08-18T04:54:05.865Z,100549.16
2022-08-18T04:56:07.886Z,100552.38
2022-08-18T04:58:09.921Z,100556.44
2022-08-18T05:00:13.919Z,100556.41
2022-08-18T05:02:16.232Z,100553.19
2022-08-18T05:04:18.292Z,100547.13
2022-08-18T05:06:21.308Z,100553.19
2022-08-18T05:08:23.514Z,100543.53
2022-08-18T05:10:25.537Z,100549.53
2022-08-18T05:12:28.434Z,100559.19
2022-08-18T05:14:31.490Z,100553.53
2022-08-18T05:16:36.062Z,100550.72
2022-08-18T05:18:40.504Z,100558.34
2022-08-18T05:20:44.721Z,100556.28
2022-08-18T05:22:48.153Z,100556.28
2022-08-18T05:24:50.181Z,100553.47
2022-08-18T05:26:52.806Z,100556.69
2022-08-18T05:29:01.703Z,100554.63
2022-08-18T05:31:19.274Z,100552.22
2022-08-18T05:33:21.313Z,100550.59
2022-08-18T05:35:28.551Z,100559.84
2022-08-18T05:37:52.382Z,100554.13
2022-08-18T05:40:00.405Z,100552.94
2022-08-18T05:42:10.956Z,100556.19
2022-08-18T05:44:15.569Z,100557.72
2022-08-18T05:46:17.541Z,100560.09
2022-08-18T05:48:24.003Z,100552.84
2022-08-18T05:50:26.041Z,100550.44
2022-08-18T05:52:38.237Z,100552.41
2022-08-18T05:55:11.163Z,100551.56
2022-08-18T05:57:17.747Z,100543.06
2022-08-18T05:59:31.747Z,100546.22
2022-08-18T06:01:38.846Z,100549.38
2022-08-18T06:03:54.507Z,100539.72
2022-08-18T06:06:01.637Z,100544.09
2022-08-18T06:08:12.010Z,100537.22
2022-08-18T06:10:15.430Z,100538.78
2022-08-18T06:12:37.314Z,100538.34
2022-08-18T06:14:41.399Z,100549.19
2022-08-18T06:17:02.403Z,100543.94
2022-08-18T06:19:22.623Z,100553.56
2022-08-18T06:21:48.405Z,100552.75
2022-08-18T06:24:12.095Z,100554.72
2022-08-18T06:26:22.168Z,100552.69
2022-08-18T06:28:24.171Z,100558.28
2022-08-18T06:30:50.623Z,100552.22
2022-08-18T06:33:19.146Z,100559.44
2022-08-18T06:35:52.204Z,100555.75
2022-08-18T06:38:38.416Z,100565.78
2022-08-18T06:40:40.444Z,100555.22
2022-08-18T06:42:42.467Z,100567.25
2022-08-18T06:44:56.079Z,100568.78
2022-08-18T06:47:34.531Z,100566.28
2022-08-18T06:49:49.510Z,100571.81
2022-08-18T06:51:51.608Z,100575.03
2022-08-18T06:54:03.581Z,100580.63
2022-08-18T06:56:25.856Z,100587.38
2022-08-18T06:58:30.636Z,100572.88
2022-08-18T07:00:41.169Z,100575.53
2022-08-18T07:02:56.459Z,100579.06
2022-08-18T07:05:05.946Z,100592.69
2022-08-18T07:07:40.425Z,100586.97
2022-08-18T07:09:42.915Z,100596.13
2022-08-18T07:12:04.746Z,100595.25
2022-08-18T07:14:17.083Z,100587.81
2022-08-18T07:16:56.595Z,100592.63
2022-08-18T07:18:53.624Z,100598.50
2022-08-18T07:21:01.583Z,100595.53
2022-08-18T07:23:08.228Z,100587.72
2022-08-18T07:25:12.290Z,100590.75
2022-08-18T07:27:22.956Z,100582.13
2022-08-18T07:29:24.988Z,100582.81
2022-08-18T07:31:49.177Z,100591.09
2022-08-18T07:34:08.805Z,100594.59
2022-08-18T07:36:11.137Z,100591.88
2022-08-18T07:38:42.678Z,100596.19
2022-08-18T07:41:20.588Z,100595.47
2022-08-18T07:43:29.357Z,100590.78
2022-08-18T07:45:41.228Z,100587.28
2022-08-18T07:48:37.215Z,100578.53
2022-08-18T07:51:08.609Z,100580.53
2022-08-18T07:53:42.381Z,100580.31
2022-08-18T07:56:02.350Z,100581.31
2022-08-18T07:58:26.972Z,100578.78
2022-08-18T08:00:59.406Z,100578.44
2022-08-18T08:03:23.146Z,100583.16
2022-08-18T08:06:01.089Z,100579.50
2022-08-18T08:08:35.928Z,100590.59
2022-08-18T08:10:53.080Z,100590.78
2022-08-18T08:13:10.082Z,100582.88
2022-08-18T08:15:36.452Z,100590.72
2022-08-18T08:18:01.190Z,100587.63
2022-08-18T08:20:38.887Z,100589.38
2022-08-18T08:23:19.881Z,100587.94
2022-08-18T08:25:58.900Z,100590.50
2022-08-18T08:28:40.394Z,100590.56
2022-08-18T08:31:36.163Z,100600.16
2022-08-18T08:33:52.258Z,100598.03
2022-08-18T08:36:23.706Z,100600.66
2022-08-18T08:38:47.316Z,100591.13
2022-08-18T08:41:03.393Z,100603.44
2022-08-18T08:43:10.963Z,100603.47
2022-08-18T08:45:32.679Z,100611.72
2022-08-18T08:47:43.102Z,100602.50
2022-08-18T08:50:01.735Z,100607.44
2022-08-18T08:52:35.278Z,100601.06
2022-08-18T08:55:25.643Z,100607.56
2022-08-18T08:57:32.470Z,100601.31
2022-08-18T08:59:37.185Z,100600.31
2022-08-18T09:02:46.521Z,100595.84
2022-08-18T09:05:14.253Z,100608.75
2022-08-18T09:07:50.673Z,100599.03
2022-08-18T09:10:04.911Z,100603.25
2022-08-18T09:12:39.109Z,100600.72
2022-08-18T09:15:08.895Z,100606.72
2022-08-18T09:17:45.451Z,100603.84
2022-08-18T09:20:48.558Z,100606.25
2022-08-18T09:23:08.812Z,100606.28
2022-08-18T09:25:39.310Z,100606.41
2022-08-18T09:28:09.985Z,100610.00
2022-08-18T09:30:09.556Z,100600.47
2022-08-18T09:32:22.997Z,100612.25
2022-08-18T09:35:23.531Z,100611.28
2022-08-18T09:37:47.451Z,100605.34
2022-08-18T09:40:59.369Z,100603.56
2022-08-18T09:43:20.230Z,100602.22
2022-08-18T09:45:33.590Z,100592.19
2022-08-18T09:47:53.576Z,100595.72
2022-08-18T09:49:57.424Z,100596.88
2022-08-18T09:52:02.385Z,100587.63
2022-08-18T09:54:21.026Z,100596.44
2022-08-18T09:56:55.696Z,100594.28
2022-08-18T09:59:02.271Z,100600.72
2022-08-18T10:01:21.526Z,100591.41
2022-08-18T10:03:25.928Z,100592.72
2022-08-18T10:05:34.268Z,100588.59
2022-08-18T10:07:43.212Z,100588.28
2022-08-18T10:11:02.132Z,100578.25
2022-08-18T10:12:59.501Z,100577.91
2022-08-18T10:15:37.693Z,100578.69
2022-08-18T10:17:57.288Z,100573.50
2022-08-18T10:20:30.699Z,100576.66
2022-08-18T10:22:48.283Z,100576.56
2022-08-18T10:24:56.389Z,100574.69
2022-08-18T10:26:59.482Z,100569.38
2022-08-18T10:29:28.911Z,100573.88
2022-08-18T10:31:32.900Z,100580.34
2022-08-18T10:34:16.478Z,100571.84
2022-08-18T10:36:52.555Z,100567.75
2022-08-18T10:38:54.566Z,100574.81
2022-08-18T10:41:15.516Z,100568.25
2022-08-18T10:43:45.412Z,100569.50
2022-08-18T10:46:22.909Z,100567.44
2022-08-18T10:48:16.734Z,100571.94
2022-08-18T10:50:21.685Z,100569.38
2022-08-18T10:53:24.153Z,100559.56
2022-08-18T10:55:51.540Z,100559.78
2022-08-18T11:01:27.285Z,100551.28
2022-08-18T11:04:14.179Z,100554.41
2022-08-18T11:06:25.993Z,100550.22
2022-08-18T11:08:28.025Z,100542.31
2022-08-18T11:10:50.706Z,100542.34
2022-08-18T11:13:14.260Z,100536.47
2022-08-18T11:15:25.642Z,100530.97
2022-08-18T11:17:33.200Z,100535.84
2022-08-18T11:19:42.138Z,100531.69
2022-08-18T11:21:51.386Z,100529.78
2022-08-18T11:24:08.966Z,100531.34
2022-08-18T11:26:18.537Z,100531.56
2022-08-18T11:28:30.329Z,100525.28
2022-08-18T11:30:37.485Z,100521.63
2022-08-18T11:32:51.677Z,100526.38
2022-08-18T11:34:58.176Z,100515.84
2022-08-18T11:37:03.714Z,100516.88
2022-08-18T11:39:11.698Z,100503.47
2022-08-18T11:41:19.223Z,100488.06
2022-08-18T11:43:29.915Z,100506.19
2022-08-18T11:45:44.202Z,100508.78
2022-08-18T11:48:36.048Z,100509.72
2022-08-18T11:51:01.684Z,100507.75
2022-08-18T11:53:25.297Z,100508.56
2022-08-18T11:55:34.404Z,100508.69
2022-08-18T11:57:56.111Z,100505.47
2022-08-18T12:00:02.568Z,100512.13
2022-08-18T12:02:05.531Z,100509.16
2022-08-18T12:04:10.027Z,100498.34
2022-08-18T12:06:30.856Z,100494.03
2022-08-18T12:11:26.529Z,100486.81
2022-08-18T12:13:29.568Z,100482.00
2022-08-18T12:15:46.618Z,100482.13
2022-08-18T12:17:52.223Z,100469.25
2022-08-18T12:19:55.195Z,100463.88
2022-08-18T12:22:00.531Z,100464.38
2022-08-18T12:24:04.457Z,100459.53
2022-08-18T12:26:26.843Z,100468.22
2022-08-18T12:28:29.451Z,100463.69
2022-08-18T12:30:32.817Z,100462.94
2022-08-18T12:32:49.894Z,100466.50
2022-08-18T12:34:53.214Z,100466.91
2022-08-18T12:36:57.024Z,100460.03
2022-08-18T12:38:59.078Z,100457.97
2022-08-18T12:41:01.218Z,100454.59
2022-08-18T12:43:05.297Z,100448.69
2022-08-18T12:45:08.889Z,100454.47
2022-08-18T12:47:18.942Z,100453.47
2022-08-18T12:49:24.935Z,100450.81
2022-08-18T12:51:30.670Z,100451.00
2022-08-18T12:55:54.833Z,100441.59
2022-08-18T12:57:57.236Z,100446.66
2022-08-18T13:00:00.511Z,100443.94
2022-08-18T13:02:02.677Z,100445.59
2022-08-18T13:04:12.875Z,100442.41
2022-08-18T13:06:15.863Z,100451.13
2022-08-18T13:08:27.586Z,100452.00
2022-08-18T13:10:42.993Z,100444.91
2022-08-18T13:12:47.611Z,100446.91
2022-08-18T13:14:51.154Z,100437.47
2022-08-18T13:16:55.159Z,100432.19
2022-08-18T13:18:57.305Z,100439.91
2022-08-18T13:20:59.660Z,100429.63
2022-08-18T13:23:01.654Z,100424.28
2022-08-18T13:25:05.448Z,100425.56
2022-08-18T13:27:18.661Z,100426.84
2022-08-18T13:29:25.621Z,100435.69
2022-08-18T13:31:27.886Z,100432.56
2022-08-18T13:33:57.210Z,100442.31
2022-08-18T13:35:56.924Z,100445.75
2022-08-18T13:37:58.955Z,100444.75
2022-08-18T13:40:01.888Z,100444.66
2022-08-18T13:42:21.538Z,100447.72
2022-08-18T13:44:26.282Z,100445.22
2022-08-18T13:46:31.101Z,100435.91
2022-08-18T13:48:33.860Z,100441.25
2022-08-18T13:50:36.156Z,100433.53
2022-08-18T13:52:44.418Z,100439.09
2022-08-18T13:54:46.784Z,100439.16
2022-08-18T13:56:56.484Z,100444.06
2022-08-18T13:59:00.376Z,100451.34
2022-08-18T14:01:39.737Z,100446.97
2022-08-18T14:03:42.790Z,100437.44
2022-08-18T14:05:52.327Z,100436.66
2022-08-18T14:07:55.267Z,100435.16
2022-08-18T14:09:59.344Z,100444.19
2022-08-18T14:12:21.547Z,100435.75
2022-08-18T14:14:25.881Z,100443.03
2022-08-18T14:16:30.850Z,100435.13
2022-08-18T14:18:32.984Z,100424.44
2022-08-18T14:20:53.924Z,100439.09
2022-08-18T14:23:21.659Z,100431.41
2022-08-18T14:25:43.027Z,100434.53
2022-08-18T14:27:56.256Z,100427.03
2022-08-18T14:29:59.055Z,100435.69
2022-08-18T14:32:02.175Z,100424.94
2022-08-18T14:34:04.749Z,100429.84
2022-08-18T14:36:09.510Z,100426.81
2022-08-18T14:38:11.971Z,100415.03
2022-08-18T14:40:14.440Z,100417.91
2022-08-18T14:42:18.235Z,100414.41
2022-08-18T14:44:23.996Z,100414.41
2022-08-18T14:46:30.598Z,100420.41
2022-08-18T14:48:37.081Z,100418.19
2022-08-18T14:50:40.260Z,100418.81
2022-08-18T14:52:51.168Z,100415.28
2022-08-18T14:54:53.663Z,100419.09
2022-08-18T14:56:57.603Z,100405.94
2022-08-18T14:58:59.600Z,100407.91
2022-08-18T15:01:08.395Z,100405.94
2022-08-18T15:03:12.296Z,100408.91
2022-08-18T15:05:19.482Z,100401.88
2022-08-18T15:07:26.631Z,100403.81
2022-08-18T15:09:31.818Z,100395.31
2022-08-18T15:11:34.614Z,100397.81
2022-08-18T15:13:41.656Z,100406.00
2022-08-18T15:15:51.847Z,100398.00
2022-08-18T15:17:54.362Z,100391.38
2022-08-18T15:20:01.077Z,100396.28
2022-08-18T15:22:21.884Z,100390.31
2022-08-18T15:24:52.850Z,100385.16
2022-08-18T15:26:57.646Z,100393.75
2022-08-18T15:29:00.817Z,100380.88
2022-08-18T15:31:17.233Z,100386.59
2022-08-18T15:33:23.628Z,100379.13
2022-08-18T15:35:26.473Z,100373.63
2022-08-18T15:37:29.259Z,100371.81
2022-08-18T15:39:31.276Z,100371.41
2022-08-18T15:43:56.837Z,100357.22
2022-08-18T15:46:00.154Z,100358.19
2022-08-18T15:48:02.690Z,100355.66
2022-08-18T15:50:06.851Z,100354.50
2022-08-18T15:52:27.272Z,100352.97
2022-08-18T15:54:29.346Z,100354.28
2022-08-18T15:56:31.868Z,100352.06
2022-08-18T15:58:34.296Z,100347.47
2022-08-18T16:00:36.882Z,100355.75
2022-08-18T16:02:40.134Z,100363.44
2022-08-18T16:04:43.171Z,100358.63
2022-08-18T16:06:51.077Z,100353.78
2022-08-18T16:08:54.757Z,100352.81
2022-08-18T16:10:56.745Z,100349.44
2022-08-18T16:12:59.559Z,100349.94
2022-08-18T16:15:03.963Z,100347.38
2022-08-18T16:17:18.191Z,100358.63
2022-08-18T16:19:25.935Z,100355.50
2022-08-18T16:21:32.311Z,100353.38
2022-08-18T16:23:34.307Z,100348.13
2022-08-18T16:25:43.171Z,100348.13
2022-08-18T16:27:45.299Z,100360.13
2022-08-18T16:29:48.956Z,100354.59
2022-08-18T16:31:51.301Z,100351.09
2022-08-18T16:33:54.350Z,100352.47
2022-08-18T16:35:56.388Z,100350.09
2022-08-18T16:38:02.638Z,100352.75
2022-08-18T16:40:06.650Z,100351.09
2022-08-18T16:42:08.677Z,100348.03
2022-08-18T16:44:10.778Z,100352.59
2022-08-18T16:46:15.646Z,100352.84
2022-08-18T16:48:20.601Z,100343.34
2022-08-18T16:50:25.000Z,100346.28
2022-08-18T16:52:27.372Z,100345.44
2022-08-18T16:54:30.019Z,100345.63
2022-08-18T16:56:34.800Z,100335.13
2022-08-18T16:58:55.590Z,100354.00
2022-08-18T17:01:18.887Z,100352.03
2022-08-18T17:03:39.889Z,100343.34
2022-08-18T17:05:41.895Z,100347.81
2022-08-18T17:07:44.043Z,100359.91
2022-08-18T17:09:46.014Z,100364.63
2022-08-18T17:11:51.806Z,100364.84
2022-08-18T17:13:57.160Z,100367.09
2022-08-18T17:16:00.124Z,100372.47
2022-08-18T17:18:03.078Z,100370.22
2022-08-18T17:20:11.015Z,100375.53
2022-08-18T17:22:13.719Z,100372.84
2022-08-18T17:24:15.778Z,100375.97
2022-08-18T17:27:00.089Z,100377.88
2022-08-18T17:29:15.357Z,100374.09
2022-08-18T17:31:19.891Z,100375.25
2022-08-18T17:33:26.269Z,100373.56
2022-08-18T17:35:39.218Z,100374.09
2022-08-18T17:38:02.440Z,100378.91
2022-08-18T17:40:14.767Z,100382.03
2022-08-18T17:42:25.877Z,100385.47
2022-08-18T17:44:31.161Z,100383.44
2022-08-18T17:46:39.378Z,100381.84
2022-08-18T17:49:54.350Z,100379.38
2022-08-18T17:52:14.187Z,100375.06
2022-08-18T17:54:38.758Z,100371.44
2022-08-18T17:57:01.886Z,100373.84
2022-08-18T17:59:45.354Z,100369.53
2022-08-18T18:01:36.143Z,100363.03
2022-08-18T18:03:38.260Z,100362.88
2022-08-18T18:05:54.622Z,100368.13
2022-08-18T18:07:58.952Z,100366.88
2022-08-18T18:10:06.603Z,100362.50
2022-08-18T18:12:23.923Z,100354.34
2022-08-18T18:14:38.301Z,100367.69
2022-08-18T18:16:40.294Z,100362.47
2022-08-18T18:18:45.182Z,100358.00
2022-08-18T18:20:58.279Z,100366.59
2022-08-18T18:23:22.731Z,100367.25
2022-08-18T18:25:34.729Z,100368.38
2022-08-18T18:27:40.813Z,100364.25
2022-08-18T18:29:43.897Z,100372.47
2022-08-18T18:31:54.558Z,100381.69
2022-08-18T18:34:28.116Z,100374.34
2022-08-18T18:36:44.618Z,100376.56
2022-08-18T18:38:49.101Z,100372.59
2022-08-18T18:41:14.409Z,100372.44
2022-08-18T18:43:29.187Z,100383.38
2022-08-18T18:45:31.568Z,100393.81
2022-08-18T18:47:56.978Z,100395.66
2022-08-18T18:50:22.467Z,100400.53
2022-08-18T18:52:57.021Z,100400.31
2022-08-18T18:55:29.294Z,100394.31
2022-08-18T18:58:01.897Z,100401.09
2022-08-18T19:00:09.508Z,100392.78
2022-08-18T19:02:56.601Z,100402.38
2022-08-18T19:05:08.375Z,100408.91
2022-08-18T19:07:20.963Z,100400.34
2022-08-18T19:10:19.901Z,100397.13
2022-08-18T19:12:26.538Z,100394.38
2022-08-18T19:14:41.119Z,100411.19
2022-08-18T19:16:59.008Z,100417.13
2022-08-18T19:19:36.259Z,100418.38
2022-08-18T19:22:04.423Z,100419.19
2022-08-18T19:24:08.042Z,100410.41
2022-08-18T19:26:12.296Z,100423.16
2022-08-18T19:28:28.428Z,100413.28
2022-08-18T19:30:30.487Z,100415.13
2022-08-18T19:32:45.055Z,100419.97
2022-08-18T19:34:55.660Z,100420.53
2022-08-18T19:37:18.319Z,100416.91
2022-08-18T19:40:19.906Z,100419.19
2022-08-18T19:42:35.303Z,100418.97
2022-08-18T19:45:20.925Z,100426.03
2022-08-18T19:47:40.395Z,100418.97
2022-08-18T19:50:04.016Z,100422.72
2022-08-18T19:52:46.566Z,100433.44
2022-08-18T19:55:39.673Z,100431.16
2022-08-18T19:58:03.533Z,100419.19
2022-08-18T20:00:35.835Z,100426.94
2022-08-18T20:03:09.932Z,100424.66
2022-08-18T20:05:18.689Z,100425.47
2022-08-18T20:07:47.206Z,100421.81
2022-08-18T20:10:44.218Z,100425.78
2022-08-18T20:12:57.747Z,100425.47
2022-08-18T20:15:20.564Z,100426.38
2022-08-18T20:17:23.046Z,100427.47
2022-08-18T20:19:48.114Z,100422.28
2022-08-18T20:21:50.816Z,100421.84
2022-08-18T20:24:06.586Z,100426.06
2022-08-18T20:26:34.634Z,100423.84
2022-08-18T20:28:39.587Z,100417.38
2022-08-18T20:31:04.807Z,100423.72
2022-08-18T20:33:24.196Z,100420.66
2022-08-18T20:35:33.256Z,100420.84
2022-08-18T20:37:35.566Z,100420.56
2022-08-18T20:39:54.609Z,100416.91
2022-08-18T20:41:56.891Z,100414.81
2022-08-18T20:44:29.389Z,100409.38
2022-08-18T20:46:44.495Z,100404.78
2022-08-18T20:49:42.619Z,100404.22
2022-08-18T20:51:54.950Z,100399.75
2022-08-18T20:54:26.125Z,100394.06
2022-08-18T20:56:44.031Z,100399.06
2022-08-18T20:59:08.460Z,100401.03
2022-08-18T21:01:11.737Z,100398.56
2022-08-18T21:03:15.708Z,100399.44
2022-08-18T21:05:29.391Z,100394.75
2022-08-18T21:07:40.347Z,100387.38
2022-08-18T21:09:51.638Z,100394.19
2022-08-18T21:11:55.035Z,100388.16
2022-08-18T21:13:58.905Z,100391.00
2022-08-18T21:16:37.878Z,100392.63
2022-08-18T21:18:52.949Z,100402.28
2022-08-18T21:20:58.033Z,100396.44
2022-08-18T21:23:09.797Z,100393.59
2022-08-18T21:25:15.919Z,100393.59
2022-08-18T21:27:36.081Z,100393.34
2022-08-18T21:29:46.868Z,100391.19
2022-08-18T21:31:51.446Z,100391.19
2022-08-18T21:33:57.183Z,100384.09
2022-08-18T21:35:59.227Z,100385.69
2022-08-18T21:38:03.683Z,100384.97
2022-08-18T21:40:06.474Z,100380.34
2022-08-18T21:42:08.517Z,100383.25
2022-08-18T21:44:44.567Z,100380.13
2022-08-18T21:46:46.595Z,100370.91
2022-08-18T21:48:51.171Z,100371.06
2022-08-18T21:50:58.636Z,100371.59
2022-08-18T21:53:28.155Z,100362.34
2022-08-18T21:55:45.252Z,100360.41
2022-08-18T21:58:16.952Z,100350.47
2022-08-18T22:00:28.558Z,100353.03
2022-08-18T22:02:31.319Z,100352.22
2022-08-18T22:04:46.851Z,100347.28
2022-08-18T22:07:34.576Z,100352.38
2022-08-18T22:10:41.421Z,100352.81
2022-08-18T22:13:15.473Z,100348.19
2022-08-18T22:15:20.104Z,100348.22
2022-08-18T22:17:41.124Z,100354.31
2022-08-18T22:19:43.143Z,100348.03
2022-08-18T22:21:55.579Z,100345.13
2022-08-18T22:24:16.380Z,100349.25
2022-08-18T22:26:22.614Z,100355.56
2022-08-18T22:28:27.439Z,100345.47
2022-08-18T22:30:29.629Z,100340.31
2022-08-18T22:32:33.079Z,100339.13
2022-08-18T22:34:37.200Z,100336.75
2022-08-18T22:36:47.150Z,100340.38
2022-08-18T22:38:49.270Z,100340.53
2022-08-18T22:40:51.354Z,100345.69
2022-08-18T22:42:53.631Z,100339.78
2022-08-18T22:44:59.057Z,100347.06
2022-08-18T22:47:05.150Z,100343.50
2022-08-18T22:49:07.196Z,100347.13
2022-08-18T22:51:09.251Z,100355.84
2022-08-18T22:53:15.000Z,100358.13
2022-08-18T22:55:22.064Z,100366.97
2022-08-18T22:57:26.249Z,100354.78
2022-08-18T22:59:28.983Z,100360.00
2022-08-18T23:01:34.395Z,100361.25
2022-08-18T23:03:41.800Z,100360.78
2022-08-18T23:05:44.893Z,100355.13
2022-08-18T23:07:46.917Z,100371.34
2022-08-18T23:09:48.951Z,100371.47
2022-08-18T23:11:51.373Z,100374.91
2022-08-18T23:13:54.086Z,100367.16
2022-08-18T23:16:30.893Z,100368.44
2022-08-18T23:18:20.543Z,100360.00
2022-08-18T23:20:26.822Z,100366.47
2022-08-18T23:22:29.261Z,100372.53
2022-08-18T23:24:31.478Z,100364.13
2022-08-18T23:26:34.333Z,100372.78
2022-08-18T23:28:36.462Z,100363.59
2022-08-18T23:30:39.320Z,100360.88
2022-08-18T23:32:41.336Z,100363.72
2022-08-18T23:34:43.340Z,100368.25
2022-08-18T23:36:46.647Z,100370.56
2022-08-18T23:38:48.622Z,100373.91
2022-08-18T23:40:51.474Z,100369.91
2022-08-18T23:42:57.881Z,100360.75
2022-08-18T23:45:03.636Z,100372.13
2022-08-18T23:47:06.147Z,100369.78
2022-08-18T23:49:10.996Z,100373.50
2022-08-18T23:51:13.199Z,100363.28
2022-08-18T23:53:16.152Z,100366.16
2022-08-18T23:55:18.159Z,100360.50
2022-08-18T23:57:20.169Z,100369.44
2022-08-18T23:59:25.166Z,100367.41
